Alpine Haven, Vermont
Current Conditions -  °F | °C
As of 6:15 AM on Friday 24 Oct 2014 (Local Time) from KEFK Reporting Station
Overcast Overcast  
Wind Chill:   Ceiling: 900
Heat Index:   Visibility: 10mi
Dew Point:   Wind: 10mph
Humidity: 95%   Direction: 350°N
Pressure: 29.8"   Gusts: NA
Location:  44.8557°N, 72.6016°W
Report Text: KEFK 241015Z AUTO 35009KT 10SM OVC009 05/05 A2980 RMK AO2 T00520045
Loading
Personal Weather Stations






























Interactive Weather Map
Tropical Storm Tracking
New forecast layout! Learn more

10-Day Weather Forecast

Advertisements
Track Severe Weather on mobile